Time;durP1;ratioP1;P1;durP2;ratioP2;P2;SDS_P1;SDS_P2;PMS_P1;PMS_P2;Temp;Humidity;BMP_temperature;BMP_pressure;BME280_temperature;BME280_humidity;BME280_pressure;Samples;Min_cycle;Max_cycle;Signal;HPM_P1;HPM_P2
2021/07/15 00:02:15;;;;;;;3.83;2.80;;;22.90;61.60;;;;;;4928404;29;20039;-76
2021/07/15 00:04:42;;;;;;;2.90;2.70;;;22.80;61.50;;;;;;4928953;29;20055;-76
2021/07/15 00:07:08;;;;;;;3.55;2.85;;;22.80;61.70;;;;;;4927285;29;20043;-76
2021/07/15 00:09:35;;;;;;;3.13;2.50;;;22.70;61.60;;;;;;4927118;29;20054;-76
2021/07/15 00:12:04;;;;;;;4.45;2.40;;;22.70;61.70;;;;;;4928810;29;20032;-76
2021/07/15 00:14:30;;;;;;;3.55;2.65;;;22.60;61.70;;;;;;4928567;29;20032;-76
2021/07/15 00:16:58;;;;;;;2.65;2.45;;;22.60;61.80;;;;;;4928481;29;20032;-76
2021/07/15 00:19:26;;;;;;;2.65;2.45;;;22.50;61.70;;;;;;4928551;29;20483;-76
2021/07/15 00:21:52;;;;;;;2.78;2.58;;;22.50;61.70;;;;;;4943382;29;20047;-76
2021/07/15 00:24:18;;;;;;;2.70;2.50;;;22.40;61.70;;;;;;4927825;29;20502;-76
2021/07/15 00:26:46;;;;;;;2.35;2.15;;;22.30;61.60;;;;;;4928328;29;20028;-77
2021/07/15 00:29:12;;;;;;;2.53;2.33;;;22.30;61.70;;;;;;4930329;29;20070;-76
2021/07/15 00:31:39;;;;;;;2.65;2.45;;;22.20;61.60;;;;;;4931113;29;20028;-77
2021/07/15 00:34:05;;;;;;;3.15;2.63;;;22.20;61.80;;;;;;4946614;29;20419;-77
2021/07/15 00:36:31;;;;;;;3.22;2.63;;;22.10;61.70;;;;;;4931944;29;20497;-77
2021/07/15 00:38:58;;;;;;;3.55;2.50;;;22.00;61.60;;;;;;4931480;29;20035;-76
2021/07/15 00:41:25;;;;;;;2.80;2.20;;;22.00;61.80;;;;;;4932029;29;20031;-76
2021/07/15 00:43:51;;;;;;;5.72;2.60;;;21.90;61.70;;;;;;4930605;29;20079;-76
2021/07/15 00:46:17;;;;;;;2.70;2.50;;;21.90;61.80;;;;;;4930437;29;20035;-76
2021/07/15 00:48:43;;;;;;;3.22;2.67;;;21.80;61.70;;;;;;4931195;29;20545;-77
2021/07/15 00:51:09;;;;;;;2.60;2.40;;;21.80;61.80;;;;;;4931353;29;20066;-77
2021/07/15 00:53:36;;;;;;;2.83;2.45;;;21.70;61.70;;;;;;4923635;29;20080;-76
2021/07/15 00:56:03;;;;;;;2.80;2.60;;;21.70;61.80;;;;;;4927471;29;20591;-76
2021/07/15 00:58:30;;;;;;;4.05;2.92;;;21.60;61.70;;;;;;4915765;29;20050;-79
2021/07/15 01:00:56;;;;;;;3.20;2.90;;;21.60;61.80;;;;;;4930963;29;20103;-76
2021/07/15 01:03:23;;;;;;;3.05;2.75;;;21.50;61.60;;;;;;4931178;29;20032;-76
2021/07/15 01:05:54;;;;;;;2.85;2.65;;;21.50;61.70;;;;;;4931565;29;20090;-76
2021/07/15 01:08:21;;;;;;;4.53;2.90;;;21.50;61.90;;;;;;4931486;29;20047;-77
2021/07/15 01:10:58;;;;;;;2.85;2.50;;;21.40;61.80;;;;;;4931228;29;20044;-77
2021/07/15 01:13:24;;;;;;;2.92;2.70;;;21.30;61.80;;;;;;4931532;29;20032;-77
2021/07/15 01:16:17;;;;;;;3.28;2.97;;;21.30;61.80;;;;;;4931576;29;20054;-76
2021/07/15 01:19:05;;;;;;;4.03;3.05;;;21.20;61.70;;;;;;4925162;29;20047;-77
2021/07/15 01:22:02;;;;;;;4.75;3.17;;;21.20;61.80;;;;;;4926594;29;20107;-77
2021/07/15 01:24:48;;;;;;;3.63;2.88;;;21.10;61.80;;;;;;4926873;29;20344;-78
2021/07/15 01:27:35;;;;;;;4.75;3.08;;;21.10;61.80;;;;;;4930276;29;20027;-76
2021/07/15 01:30:04;;;;;;;3.80;2.75;;;21.00;61.70;;;;;;4931622;29;20407;-76
2021/07/15 01:32:46;;;;;;;3.67;3.00;;;21.00;61.80;;;;;;4912108;29;20420;-77
2021/07/15 01:35:15;;;;;;;3.50;3.20;;;20.90;61.70;;;;;;4928318;29;20095;-76
2021/07/15 01:37:48;;;;;;;4.22;2.83;;;20.80;61.60;;;;;;4912572;29;20094;-77
2021/07/15 01:40:19;;;;;;;3.88;3.20;;;20.80;61.70;;;;;;4945460;28;20063;-76
2021/07/15 01:42:50;;;;;;;3.15;2.70;;;20.80;61.80;;;;;;4932181;29;20066;-77
2021/07/15 01:45:16;;;;;;;3.58;3.17;;;20.80;61.90;;;;;;4930100;29;20043;-78
2021/07/15 01:47:42;;;;;;;3.53;3.22;;;20.70;61.80;;;;;;4915054;29;20032;-76
2021/07/15 01:50:09;;;;;;;3.88;3.55;;;20.60;61.70;;;;;;4916743;29;20079;-76
2021/07/15 01:52:35;;;;;;;3.65;3.00;;;20.60;61.90;;;;;;4916154;29;20063;-77
2021/07/15 01:55:03;;;;;;;3.55;3.25;;;20.60;61.90;;;;;;4916444;29;20032;-77
2021/07/15 01:57:29;;;;;;;7.25;3.30;;;20.50;62.30;;;;;;4914634;29;20036;-76
2021/07/15 01:59:58;;;;;;;2.80;2.60;;;20.50;61.90;;;;;;4930397;29;20391;-77
2021/07/15 02:02:27;;;;;;;6.57;3.72;;;20.50;62.00;;;;;;4899247;29;20036;-75
2021/07/15 02:04:57;;;;;;;3.97;3.03;;;20.40;61.90;;;;;;4916428;29;20032;-76
2021/07/15 02:07:26;;;;;;;3.35;2.80;;;20.40;61.90;;;;;;4916278;29;20127;-76
2021/07/15 02:09:54;;;;;;;3.00;2.70;;;20.30;61.90;;;;;;4916013;29;20043;-77
2021/07/15 02:12:22;;;;;;;3.28;2.97;;;20.30;62.00;;;;;;4930589;29;20115;-76
2021/07/15 02:14:52;;;;;;;3.15;2.85;;;20.30;62.00;;;;;;4915664;29;20032;-77
2021/07/15 02:17:20;;;;;;;4.07;2.80;;;20.20;61.90;;;;;;4914505;29;20032;-76
2021/07/15 02:19:46;;;;;;;3.80;3.42;;;20.20;62.00;;;;;;4914493;29;20092;-77
2021/07/15 02:22:13;;;;;;;3.53;3.05;;;20.10;61.80;;;;;;4914612;29;20036;-76
2021/07/15 02:24:40;;;;;;;3.58;3.17;;;20.10;61.90;;;;;;4916203;29;20513;-75
2021/07/15 02:27:08;;;;;;;4.78;3.10;;;20.10;62.00;;;;;;4913617;29;20032;-76
2021/07/15 02:29:36;;;;;;;3.78;3.30;;;20.00;61.90;;;;;;4914547;29;20193;-77
2021/07/15 02:32:06;;;;;;;3.30;3.00;;;20.00;61.90;;;;;;4915770;29;20036;-77
2021/07/15 02:34:58;;;;;;;3.53;3.13;;;20.00;62.10;;;;;;4915908;29;20407;-76
2021/07/15 02:37:32;;;;;;;3.10;2.72;;;20.00;62.20;;;;;;4914089;29;20040;-76
2021/07/15 02:39:59;;;;;;;3.60;3.15;;;19.90;62.10;;;;;;4914288;29;20039;-77
2021/07/15 02:42:25;;;;;;;3.47;2.92;;;19.90;62.10;;;;;;4913982;29;20036;-77
2021/07/15 02:44:51;;;;;;;3.75;3.30;;;19.80;62.00;;;;;;4914311;29;20043;-77
2021/07/15 02:47:17;;;;;;;4.65;3.38;;;19.80;62.00;;;;;;4915390;29;20029;-79
2021/07/15 02:49:44;;;;;;;3.15;2.85;;;19.80;62.10;;;;;;4930002;29;20040;-77
2021/07/15 02:52:11;;;;;;;3.58;3.28;;;19.80;62.10;;;;;;4897899;29;20557;-78
2021/07/15 02:54:39;;;;;;;3.15;2.88;;;19.70;62.00;;;;;;4916047;29;20039;-77
2021/07/15 02:57:29;;;;;;;3.05;2.78;;;19.70;62.10;;;;;;4916862;29;20411;-78
2021/07/15 03:00:09;;;;;;;4.55;3.03;;;19.60;62.00;;;;;;4914690;29;20032;-78
2021/07/15 03:03:03;;;;;;;2.95;2.65;;;19.60;62.10;;;;;;4917036;29;20032;-78
2021/07/15 03:06:02;;;;;;;3.25;2.67;;;19.60;62.20;;;;;;4916150;29;20032;-77
2021/07/15 03:08:32;;;;;;;4.20;2.88;;;19.50;62.00;;;;;;4914653;29;20280;-80
2021/07/15 03:11:01;;;;;;;3.17;2.83;;;19.50;62.00;;;;;;4915268;29;20024;-76
2021/07/15 03:13:29;;;;;;;5.90;3.58;;;19.40;61.90;;;;;;4915162;29;20492;-77
2021/07/15 03:15:55;;;;;;;4.15;3.15;;;19.40;61.90;;;;;;4914813;29;20110;-77
2021/07/15 03:18:24;;;;;;;4.20;3.35;;;19.40;62.00;;;;;;4915032;29;20087;-77
2021/07/15 03:20:52;;;;;;;4.63;3.40;;;19.30;61.90;;;;;;4914852;29;20520;-77
2021/07/15 03:23:20;;;;;;;3.97;3.20;;;19.30;62.00;;;;;;4915078;29;20180;-77
2021/07/15 03:25:54;;;;;;;2.88;2.67;;;19.30;62.00;;;;;;4913582;29;20059;-78
2021/07/15 03:28:23;;;;;;;3.13;2.75;;;19.30;62.10;;;;;;4913300;29;20116;-79
2021/07/15 03:30:56;;;;;;;3.58;3.17;;;19.20;61.90;;;;;;4914530;29;20060;-79
2021/07/15 03:33:23;;;;;;;3.72;3.35;;;19.20;62.10;;;;;;4915195;29;20115;-76
2021/07/15 03:35:49;;;;;;;4.07;3.00;;;19.10;61.90;;;;;;4913221;29;20126;-77
2021/07/15 03:38:16;;;;;;;3.97;3.03;;;19.10;61.90;;;;;;4913515;29;20079;-76
2021/07/15 03:40:42;;;;;;;4.10;3.08;;;19.10;62.00;;;;;;4915096;29;20044;-77
2021/07/15 03:43:12;;;;;;;3.40;3.10;;;19.10;62.10;;;;;;4913586;29;20067;-76
2021/07/15 03:45:39;;;;;;;3.78;3.47;;;19.10;62.20;;;;;;4914629;29;20029;-78
2021/07/15 03:48:08;;;;;;;3.58;3.28;;;19.00;62.00;;;;;;4914638;29;20164;-77
2021/07/15 03:50:34;;;;;;;3.47;3.17;;;19.00;62.00;;;;;;4914533;29;20028;-76
2021/07/15 03:53:05;;;;;;;5.13;2.90;;;18.90;61.90;;;;;;4914354;29;20039;-76
2021/07/15 03:55:35;;;;;;;4.97;2.92;;;18.90;62.00;;;;;;4914722;29;20268;-76
2021/07/15 03:58:05;;;;;;;3.50;3.20;;;18.90;62.10;;;;;;4914599;29;20036;-77
2021/07/15 04:00:32;;;;;;;5.07;3.20;;;18.90;62.20;;;;;;4912772;29;20492;-77
2021/07/15 04:03:01;;;;;;;4.65;3.47;;;18.80;62.00;;;;;;4914928;29;20038;-77
2021/07/15 04:05:29;;;;;;;3.20;3.00;;;18.80;62.10;;;;;;4918550;29;20246;-77
2021/07/15 04:07:58;;;;;;;3.55;3.25;;;18.80;62.10;;;;;;4917945;29;20083;-77
2021/07/15 04:10:28;;;;;;;3.33;2.90;;;18.80;62.20;;;;;;4932979;29;20059;-77
2021/07/15 04:12:55;;;;;;;3.28;2.97;;;18.70;62.00;;;;;;4918122;29;20472;-77
2021/07/15 04:15:33;;;;;;;4.05;3.03;;;18.70;62.00;;;;;;4917973;29;20452;-75
2021/07/15 04:18:01;;;;;;;3.17;2.97;;;18.70;62.10;;;;;;4917540;29;20024;-75
2021/07/15 04:20:29;;;;;;;3.00;2.80;;;18.70;62.10;;;;;;4916746;29;20036;-76
2021/07/15 04:22:59;;;;;;;3.38;3.08;;;18.60;62.00;;;;;;4917733;29;20119;-76
2021/07/15 04:25:27;;;;;;;3.28;3.05;;;18.60;62.10;;;;;;4917927;29;20433;-78
2021/07/15 04:27:58;;;;;;;3.10;2.75;;;18.50;61.90;;;;;;4917340;29;20032;-76
2021/07/15 04:30:25;;;;;;;3.42;3.13;;;18.50;62.10;;;;;;4917015;29;20391;-77
2021/07/15 04:32:55;;;;;;;4.13;2.83;;;18.50;62.00;;;;;;4917635;29;20072;-76
2021/07/15 04:35:24;;;;;;;3.20;2.75;;;18.50;62.20;;;;;;4917910;29;20040;-77
2021/07/15 04:37:52;;;;;;;3.03;2.83;;;18.50;62.20;;;;;;4917629;29;20033;-77
2021/07/15 04:40:22;;;;;;;3.40;3.10;;;18.40;62.10;;;;;;4917377;29;20135;-77
2021/07/15 04:42:52;;;;;;;3.55;3.20;;;18.50;62.30;;;;;;4917485;29;20180;-76
2021/07/15 04:45:24;;;;;;;3.58;2.90;;;18.40;62.10;;;;;;4917893;29;20032;-78
2021/07/15 04:47:51;;;;;;;3.72;3.40;;;18.40;62.20;;;;;;4913763;29;20107;-76
2021/07/15 04:50:20;;;;;;;3.30;3.00;;;18.40;62.20;;;;;;4914104;29;20032;-77
2021/07/15 04:52:49;;;;;;;3.38;3.05;;;18.40;62.20;;;;;;4914686;29;20417;-77
2021/07/15 04:55:19;;;;;;;3.78;3.40;;;18.40;62.30;;;;;;4928511;29;20028;-77
2021/07/15 04:57:48;;;;;;;3.55;3.25;;;18.40;62.30;;;;;;4918609;29;20127;-76
2021/07/15 05:00:14;;;;;;;3.35;3.05;;;18.40;62.30;;;;;;4947429;29;20039;-78
2021/07/15 05:02:40;;;;;;;3.40;2.88;;;18.40;62.40;;;;;;4942803;29;20036;-76
2021/07/15 05:05:12;;;;;;;3.60;3.30;;;18.40;62.40;;;;;;4911385;29;20032;-76
2021/07/15 05:07:39;;;;;;;3.10;2.78;;;18.30;62.20;;;;;;4914761;29;20102;-76
2021/07/15 05:10:10;;;;;;;2.97;2.70;;;18.40;62.50;;;;;;4945697;29;20122;-77
2021/07/15 05:12:37;;;;;;;3.35;3.05;;;18.30;62.30;;;;;;4929721;29;20032;-77
2021/07/15 05:15:06;;;;;;;3.22;2.92;;;18.30;62.30;;;;;;4928967;29;20402;-77
2021/07/15 05:17:32;;;;;;;3.42;3.13;;;18.30;62.30;;;;;;4930255;29;20123;-75
2021/07/15 05:19:59;;;;;;;2.65;2.45;;;18.30;62.30;;;;;;4931006;29;20035;-77
2021/07/15 05:22:26;;;;;;;3.72;3.13;;;18.30;62.40;;;;;;4926913;29;20043;-76
2021/07/15 05:24:52;;;;;;;3.03;2.80;;;18.30;62.40;;;;;;4912545;29;20118;-76
2021/07/15 05:27:18;;;;;;;2.85;2.65;;;18.30;62.40;;;;;;4911137;29;20115;-75
2021/07/15 05:29:44;;;;;;;3.33;3.03;;;18.30;62.50;;;;;;4945199;29;20035;-76
2021/07/15 05:32:10;;;;;;;3.20;2.90;;;18.30;62.50;;;;;;4931318;29;20044;-76
2021/07/15 05:34:36;;;;;;;3.72;2.80;;;18.30;62.50;;;;;;4931481;29;20388;-76
2021/07/15 05:37:03;;;;;;;3.00;2.80;;;18.30;62.50;;;;;;4931415;29;20083;-77
2021/07/15 05:39:29;;;;;;;3.40;3.08;;;18.40;63.30;;;;;;4930737;29;20054;-77
2021/07/15 05:41:55;;;;;;;3.42;3.13;;;18.30;62.50;;;;;;4931578;29;20051;-77
2021/07/15 05:44:21;;;;;;;3.58;2.63;;;18.40;62.80;;;;;;4929657;29;20082;-76
2021/07/15 05:46:47;;;;;;;3.78;3.47;;;18.40;62.80;;;;;;4945385;29;20036;-77
2021/07/15 05:49:13;;;;;;;3.47;3.17;;;18.40;62.80;;;;;;4928776;29;20436;-76
2021/07/15 05:51:40;;;;;;;2.90;2.70;;;18.40;62.80;;;;;;4930701;29;20074;-77
2021/07/15 05:54:06;;;;;;;3.33;3.03;;;18.50;63.00;;;;;;4912829;29;20052;-76
2021/07/15 05:56:32;;;;;;;4.70;3.30;;;18.50;63.00;;;;;;4911263;29;20082;-76
2021/07/15 05:58:58;;;;;;;3.58;3.00;;;18.50;63.00;;;;;;4924028;29;20035;-75
2021/07/15 06:01:24;;;;;;;4.10;3.03;;;18.50;63.00;;;;;;4928377;29;20126;-76
2021/07/15 06:03:50;;;;;;;3.38;3.08;;;18.60;63.20;;;;;;4929478;29;20028;-77
2021/07/15 06:06:16;;;;;;;3.28;2.97;;;18.60;63.20;;;;;;4928782;29;20118;-75
2021/07/15 06:08:42;;;;;;;4.55;4.15;;;18.70;63.40;;;;;;4918842;29;20044;-75
2021/07/15 06:11:08;;;;;;;5.20;4.60;;;18.80;64.00;;;;;;4911124;29;20056;-74
2021/07/15 06:13:34;;;;;;;4.45;4.05;;;18.80;64.60;;;;;;4924413;29;20040;-75
2021/07/15 06:16:00;;;;;;;4.97;4.47;;;18.90;64.80;;;;;;4930299;29;20392;-74
2021/07/15 06:18:28;;;;;;;4.82;4.35;;;18.90;65.00;;;;;;4929811;29;20036;-76
2021/07/15 06:20:54;;;;;;;6.88;4.97;;;19.00;65.30;;;;;;4929799;29;20065;-74
2021/07/15 06:23:20;;;;;;;8.07;5.60;;;19.10;65.60;;;;;;4930053;29;20034;-74
2021/07/15 06:25:46;;;;;;;5.50;4.88;;;19.20;65.90;;;;;;4929167;29;20291;-75
2021/07/15 06:28:12;;;;;;;6.55;4.40;;;19.30;66.20;;;;;;4929278;29;20031;-75
2021/07/15 06:30:38;;;;;;;7.15;4.70;;;19.30;66.30;;;;;;4929434;29;20043;-73
2021/07/15 06:33:04;;;;;;;5.63;4.70;;;19.40;66.50;;;;;;4929460;29;20412;-73
2021/07/15 06:35:31;;;;;;;5.85;4.93;;;19.50;66.70;;;;;;4917969;29;20047;-76
2021/07/15 06:37:57;;;;;;;5.72;5.00;;;19.70;67.10;;;;;;4914654;29;20617;-75
2021/07/15 06:40:24;;;;;;;6.05;4.70;;;19.90;67.50;;;;;;4915384;29;20040;-73
2021/07/15 06:42:50;;;;;;;4.88;4.38;;;20.10;67.80;;;;;;4917665;29;20034;-73
2021/07/15 06:45:16;;;;;;;5.20;4.70;;;20.30;68.00;;;;;;4929902;29;20154;-74
2021/07/15 06:47:42;;;;;;;4.55;4.10;;;20.50;68.20;;;;;;4922326;29;20186;-76
2021/07/15 06:50:11;;;;;;;7.47;4.47;;;20.70;68.30;;;;;;4912295;29;20739;-77
2021/07/15 06:52:37;;;;;;;5.05;4.55;;;21.00;68.60;;;;;;4923065;29;20122;-75
2021/07/15 06:55:04;;;;;;;5.00;4.50;;;21.20;68.60;;;;;;4928401;29;20381;-77
2021/07/15 06:57:30;;;;;;;7.63;4.32;;;21.40;68.60;;;;;;4927952;29;20035;-77
2021/07/15 06:59:56;;;;;;;5.82;3.88;;;21.70;68.70;;;;;;4927580;29;20023;-75
2021/07/15 07:02:26;;;;;;;6.78;4.00;;;22.00;68.70;;;;;;4929153;29;20050;-74
2021/07/15 07:04:52;;;;;;;3.83;3.53;;;22.30;68.70;;;;;;4928115;29;20039;-75
2021/07/15 07:07:18;;;;;;;3.88;3.55;;;22.70;68.80;;;;;;4929194;29;20424;-75
2021/07/15 07:09:44;;;;;;;4.00;2.80;;;23.00;68.60;;;;;;4929703;29;20031;-73
2021/07/15 07:12:10;;;;;;;3.35;2.88;;;23.30;68.40;;;;;;4928270;29;20034;-73
2021/07/15 07:14:36;;;;;;;3.72;3.38;;;23.60;68.80;;;;;;4929232;29;20109;-73
2021/07/15 07:17:02;;;;;;;3.40;3.10;;;23.90;67.90;;;;;;4928505;29;20509;-78
2021/07/15 07:19:28;;;;;;;2.92;2.72;;;24.10;67.60;;;;;;4928422;29;20027;-74
2021/07/15 07:21:54;;;;;;;4.68;2.83;;;24.30;67.10;;;;;;4928701;29;20401;-73
2021/07/15 07:24:20;;;;;;;3.50;2.63;;;24.50;66.90;;;;;;4928679;29;20032;-74
2021/07/15 07:26:46;;;;;;;3.85;2.75;;;24.80;66.60;;;;;;4927296;29;20088;-75
2021/07/15 07:29:12;;;;;;;2.58;2.35;;;25.00;66.20;;;;;;4928292;29;20550;-73
2021/07/15 07:31:38;;;;;;;2.53;2.33;;;25.30;65.80;;;;;;4924719;29;20546;-74
2021/07/15 07:34:04;;;;;;;3.65;2.92;;;25.50;65.30;;;;;;4928780;29;20040;-75
2021/07/15 07:36:30;;;;;;;3.45;2.42;;;25.70;64.60;;;;;;4924012;29;20143;-74
2021/07/15 07:38:56;;;;;;;3.47;2.40;;;26.00;64.00;;;;;;4931485;29;20032;-73
2021/07/15 07:41:22;;;;;;;2.70;2.13;;;26.20;63.50;;;;;;4934909;29;20052;-73
2021/07/15 07:43:48;;;;;;;3.72;2.42;;;26.30;62.60;;;;;;4934143;29;20500;-74
2021/07/15 07:46:14;;;;;;;4.38;2.50;;;26.40;62.10;;;;;;4933607;29;20035;-74
2021/07/15 07:48:40;;;;;;;2.60;2.00;;;26.50;61.80;;;;;;4934706;29;20066;-74
2021/07/15 07:51:06;;;;;;;2.80;2.28;;;26.60;61.30;;;;;;4934842;29;20570;-77
2021/07/15 07:53:34;;;;;;;3.67;2.35;;;26.80;60.80;;;;;;4934629;29;20067;-74
2021/07/15 07:56:00;;;;;;;2.55;2.35;;;27.10;60.40;;;;;;4933010;29;20349;-74
2021/07/15 07:58:26;;;;;;;3.03;2.22;;;27.30;59.90;;;;;;4923628;29;20043;-75
2021/07/15 08:00:52;;;;;;;2.15;1.95;;;27.50;59.10;;;;;;4913401;29;20432;-76
2021/07/15 08:03:18;;;;;;;3.13;2.20;;;27.80;58.50;;;;;;4909667;29;20433;-77
2021/07/15 08:05:45;;;;;;;3.53;2.63;;;28.10;57.80;;;;;;4934222;29;20511;-75
2021/07/15 08:08:11;;;;;;;2.65;2.10;;;28.30;57.20;;;;;;4934518;29;20500;-77
2021/07/15 08:10:38;;;;;;;3.53;2.30;;;28.60;56.60;;;;;;4930011;29;20503;-73
2021/07/15 08:13:04;;;;;;;3.22;2.35;;;28.90;56.00;;;;;;4934392;29;20118;-74
2021/07/15 08:15:30;;;;;;;3.67;2.13;;;29.10;55.20;;;;;;4934865;29;20539;-73
2021/07/15 08:17:57;;;;;;;3.22;2.13;;;29.30;54.60;;;;;;4932023;29;20123;-73
2021/07/15 08:20:23;;;;;;;3.15;2.15;;;29.40;54.30;;;;;;4934673;29;20045;-73
2021/07/15 08:22:49;;;;;;;2.88;2.28;;;29.60;53.90;;;;;;4932263;29;20139;-73
2021/07/15 08:25:19;;;;;;;3.85;1.88;;;29.70;53.50;;;;;;4932793;29;20128;-73
2021/07/15 08:27:45;;;;;;;4.43;1.92;;;29.90;52.90;;;;;;4932004;29;20522;-75
2021/07/15 08:30:12;;;;;;;2.55;1.80;;;30.00;52.30;;;;;;4926701;29;20063;-74
2021/07/15 08:32:38;;;;;;;4.05;1.80;;;30.00;51.90;;;;;;4920461;29;20521;-74
2021/07/15 08:35:05;;;;;;;3.17;1.92;;;30.00;51.40;;;;;;4922114;29;20032;-74
2021/07/15 08:37:31;;;;;;;2.65;1.83;;;30.30;51.00;;;;;;4917434;29;20047;-75
2021/07/15 08:39:57;;;;;;;2.63;2.17;;;30.70;50.40;;;;;;4935007;29;20024;-74
2021/07/15 08:42:25;;;;;;;2.95;2.28;;;31.00;49.60;;;;;;4928217;29;20514;-73
2021/07/15 08:44:53;;;;;;;3.03;1.75;;;31.10;49.10;;;;;;4932924;29;20036;-73
2021/07/15 08:47:20;;;;;;;2.45;1.88;;;30.90;48.90;;;;;;4949474;28;20369;-74
2021/07/15 08:49:46;;;;;;;2.33;1.90;;;30.80;49.20;;;;;;4928669;29;20539;-73
2021/07/15 08:52:16;;;;;;;2.60;2.13;;;30.70;49.10;;;;;;4930851;29;20798;-73
2021/07/15 08:54:56;;;;;;;2.10;1.90;;;30.60;48.70;;;;;;4930985;29;20059;-74
2021/07/15 08:57:22;;;;;;;2.10;1.90;;;30.50;49.20;;;;;;4925778;29;20530;-73
2021/07/15 08:59:48;;;;;;;3.05;2.25;;;30.30;49.30;;;;;;4930805;29;20067;-73
2021/07/15 09:02:22;;;;;;;2.08;1.80;;;30.00;49.60;;;;;;4930971;29;20043;-74
2021/07/15 09:04:49;;;;;;;2.72;1.80;;;29.60;50.00;;;;;;4930991;29;20035;-76
2021/07/15 09:07:17;;;;;;;2.92;2.15;;;29.70;50.40;;;;;;4931196;29;20074;-74
2021/07/15 09:09:46;;;;;;;5.57;2.35;;;29.90;50.10;;;;;;4930762;29;20502;-75
2021/07/15 09:12:15;;;;;;;3.38;2.00;;;30.00;49.50;;;;;;4930627;29;20039;-74
2021/07/15 09:14:46;;;;;;;3.17;2.08;;;29.90;49.60;;;;;;4930051;29;20471;-75
2021/07/15 09:17:13;;;;;;;2.88;2.25;;;29.60;50.00;;;;;;4930825;29;20031;-76
2021/07/15 09:19:41;;;;;;;2.47;2.28;;;29.40;50.30;;;;;;4920356;29;20032;-75
2021/07/15 09:22:14;;;;;;;3.42;2.35;;;29.30;50.60;;;;;;4911622;29;20043;-74
2021/07/15 09:24:44;;;;;;;4.00;1.95;;;28.90;50.70;;;;;;4930704;29;20377;-74
2021/07/15 09:27:21;;;;;;;2.63;2.08;;;28.60;51.20;;;;;;4929018;29;20396;-74
2021/07/15 09:30:14;;;;;;;3.30;2.50;;;28.30;51.60;;;;;;4909902;29;20025;-73
2021/07/15 09:32:57;;;;;;;4.50;2.22;;;28.10;52.10;;;;;;4930889;29;20031;-73
2021/07/15 09:35:36;;;;;;;2.83;2.47;;;28.10;52.10;;;;;;4930457;29;20032;-75
2021/07/15 09:38:10;;;;;;;2.75;2.10;;;28.10;52.60;;;;;;4930451;29;20514;-73
2021/07/15 09:40:57;;;;;;;2.30;2.10;;;28.10;52.80;;;;;;4922232;29;20040;-73
2021/07/15 09:43:27;;;;;;;3.20;2.30;;;28.10;52.90;;;;;;4911510;29;20066;-72
2021/07/15 09:45:55;;;;;;;2.58;2.17;;;28.10;53.10;;;;;;4911638;29;20040;-75
2021/07/15 09:48:27;;;;;;;2.22;2.03;;;28.10;53.20;;;;;;4919346;29;20067;-74
2021/07/15 09:50:58;;;;;;;3.40;2.17;;;28.10;53.30;;;;;;4916774;29;20063;-77
2021/07/15 09:53:30;;;;;;;4.50;1.80;;;28.20;53.50;;;;;;4919530;29;20030;-74
2021/07/15 09:56:01;;;;;;;2.70;2.13;;;28.30;53.60;;;;;;4945045;29;20495;-74
2021/07/15 09:58:41;;;;;;;2.50;1.88;;;28.40;53.70;;;;;;4929470;29;20496;-74
2021/07/15 10:01:09;;;;;;;2.53;2.33;;;28.40;53.70;;;;;;4927122;29;20479;-73
2021/07/15 10:03:39;;;;;;;3.92;2.40;;;28.40;53.70;;;;;;4922757;29;20083;-73
2021/07/15 10:06:06;;;;;;;3.45;2.42;;;28.50;53.70;;;;;;4930394;29;20487;-74
2021/07/15 10:08:34;;;;;;;2.17;1.98;;;28.60;53.70;;;;;;4944702;29;20058;-73
2021/07/15 10:11:19;;;;;;;2.40;2.20;;;28.60;53.80;;;;;;4929730;29;20050;-73
2021/07/15 10:13:47;;;;;;;3.38;2.35;;;28.80;53.80;;;;;;4928278;29;20034;-74
2021/07/15 10:16:13;;;;;;;2.70;1.88;;;29.00;53.70;;;;;;4929576;29;20418;-74
2021/07/15 10:18:47;;;;;;;2.72;2.17;;;29.20;53.50;;;;;;4928451;29;20028;-74
2021/07/15 10:21:15;;;;;;;2.47;2.00;;;29.40;53.30;;;;;;4928328;29;20578;-73
2021/07/15 10:23:43;;;;;;;2.15;1.75;;;29.60;53.10;;;;;;4927457;29;20027;-74
2021/07/15 10:26:11;;;;;;;2.33;2.08;;;29.70;52.80;;;;;;4910449;29;20047;-75
2021/07/15 10:28:42;;;;;;;2.10;1.90;;;29.80;52.80;;;;;;4944315;29;20042;-74
2021/07/15 10:31:08;;;;;;;2.33;1.92;;;29.90;52.80;;;;;;4930165;29;20039;-74
2021/07/15 10:33:35;;;;;;;1.88;1.77;;;30.00;52.60;;;;;;4916721;29;20507;-75
2021/07/15 10:36:04;;;;;;;2.10;1.90;;;30.10;52.50;;;;;;4906911;29;20577;-75
2021/07/15 10:38:39;;;;;;;2.05;1.85;;;30.10;52.40;;;;;;4924564;29;20031;-73
2021/07/15 10:41:06;;;;;;;4.00;1.65;;;30.20;52.30;;;;;;4929207;29;20039;-73
2021/07/15 10:43:33;;;;;;;6.35;2.13;;;30.40;52.30;;;;;;4929654;29;20122;-74
2021/07/15 10:46:02;;;;;;;3.05;2.00;;;30.50;52.10;;;;;;4927633;29;20055;-74
2021/07/15 10:48:33;;;;;;;2.60;2.15;;;30.70;52.00;;;;;;4927921;29;20035;-73
2021/07/15 10:51:00;;;;;;;1.48;1.38;;;30.70;51.60;;;;;;4929143;28;20211;-73
2021/07/15 10:53:33;;;;;;;2.28;1.67;;;30.80;51.60;;;;;;4920218;29;20451;-73
2021/07/15 10:56:00;;;;;;;2.15;1.92;;;30.80;51.50;;;;;;4924443;29;20040;-73
2021/07/15 10:58:45;;;;;;;2.00;1.80;;;30.80;51.60;;;;;;4917139;29;20379;-73
2021/07/15 11:01:40;;;;;;;2.42;1.90;;;30.80;51.70;;;;;;4929349;29;20127;-73
2021/07/15 11:04:21;;;;;;;4.25;2.20;;;30.80;52.30;;;;;;4929884;29;20178;-73
2021/07/15 11:06:52;;;;;;;2.45;1.85;;;30.70;51.60;;;;;;4929154;29;20123;-73
2021/07/15 11:09:31;;;;;;;2.13;1.85;;;30.80;51.70;;;;;;4928646;29;20059;-73
2021/07/15 11:11:58;;;;;;;2.13;1.90;;;30.80;51.70;;;;;;4927551;29;20396;-73
2021/07/15 11:14:46;;;;;;;3.70;1.75;;;30.90;51.70;;;;;;4927978;29;20043;-72
2021/07/15 11:17:21;;;;;;;2.33;1.85;;;30.90;51.50;;;;;;4929420;29;20035;-73
2021/07/15 11:19:58;;;;;;;2.00;1.77;;;30.90;51.60;;;;;;4927129;29;20087;-73
2021/07/15 11:22:46;;;;;;;2.05;1.80;;;31.00;51.60;;;;;;4928386;29;20051;-74
2021/07/15 11:25:12;;;;;;;2.20;1.92;;;31.10;51.40;;;;;;4929584;29;20039;-74
2021/07/15 11:27:42;;;;;;;2.20;2.00;;;31.10;51.40;;;;;;4927131;29;20046;-74
2021/07/15 11:30:12;;;;;;;1.92;1.63;;;31.20;51.30;;;;;;4943735;29;20087;-74
2021/07/15 11:32:38;;;;;;;2.08;1.80;;;31.40;51.20;;;;;;4927724;29;20107;-73
2021/07/15 11:35:28;;;;;;;2.08;1.60;;;31.60;51.00;;;;;;4928512;29;20066;-73
2021/07/15 11:38:13;;;;;;;1.90;1.80;;;31.70;50.70;;;;;;4914704;29;20090;-72
2021/07/15 11:40:40;;;;;;;3.05;1.60;;;31.90;50.50;;;;;;4909078;29;20515;-73
2021/07/15 11:43:22;;;;;;;2.33;1.70;;;32.10;50.40;;;;;;4927355;29;20158;-72
2021/07/15 11:46:29;;;;;;;2.42;1.83;;;32.20;50.20;;;;;;4923923;29;20036;-72
2021/07/15 11:49:14;;;;;;;2.17;1.98;;;32.20;50.20;;;;;;4906616;29;20131;-73
2021/07/15 11:51:52;;;;;;;2.90;1.67;;;32.30;50.10;;;;;;4928538;29;20052;-73
2021/07/15 11:54:44;;;;;;;4.65;1.75;;;32.40;50.00;;;;;;4925853;29;20127;-73
2021/07/15 11:57:13;;;;;;;2.10;1.90;;;32.50;49.90;;;;;;4923699;29;20295;-74
2021/07/15 12:00:02;;;;;;;2.53;1.98;;;32.60;49.80;;;;;;4926145;29;20441;-72
2021/07/15 12:02:43;;;;;;;2.10;1.90;;;32.70;49.70;;;;;;4928365;29;20078;-74
2021/07/15 12:05:15;;;;;;;3.58;1.70;;;32.80;49.60;;;;;;4926780;29;20036;-74
2021/07/15 12:07:46;;;;;;;2.00;1.80;;;32.90;49.40;;;;;;4927887;29;20082;-74
2021/07/15 12:10:25;;;;;;;1.77;1.67;;;33.10;49.40;;;;;;4928451;29;20106;-75
2021/07/15 12:12:52;;;;;;;3.80;1.80;;;33.20;49.30;;;;;;4927922;29;20061;-74
2021/07/15 12:15:24;;;;;;;2.38;1.90;;;33.30;49.20;;;;;;4927200;29;20035;-73
2021/07/15 12:17:55;;;;;;;2.65;1.88;;;33.30;48.90;;;;;;4927346;29;20118;-75
2021/07/15 12:20:24;;;;;;;4.32;1.83;;;33.40;48.90;;;;;;4928440;29;20028;-75
2021/07/15 12:22:57;;;;;;;3.33;1.90;;;33.40;48.80;;;;;;4927586;29;20061;-74
2021/07/15 12:25:33;;;;;;;1.85;1.52;;;33.30;48.80;;;;;;4930980;29;20048;-74
2021/07/15 12:28:05;;;;;;;2.50;1.67;;;33.30;48.90;;;;;;4930285;29;20035;-75
2021/07/15 12:30:53;;;;;;;1.75;1.65;;;33.30;48.90;;;;;;4927318;29;20027;-75
2021/07/15 12:33:22;;;;;;;2.38;1.98;;;33.40;48.90;;;;;;4915916;29;20036;-75
2021/07/15 12:35:50;;;;;;;2.50;2.15;;;33.50;48.80;;;;;;4910552;29;20080;-74
2021/07/15 12:38:22;;;;;;;2.70;1.80;;;33.60;48.70;;;;;;4919585;29;20119;-75
2021/07/15 12:40:49;;;;;;;3.92;1.80;;;33.70;48.60;;;;;;4931364;29;20522;-74
2021/07/15 12:43:15;;;;;;;2.92;2.30;;;33.80;48.50;;;;;;4931395;29;20034;-75
2021/07/15 12:45:46;;;;;;;2.47;1.70;;;33.90;48.40;;;;;;4932318;29;20043;-74
2021/07/15 12:48:15;;;;;;;2.72;2.17;;;34.10;48.30;;;;;;4925372;29;20036;-74
2021/07/15 12:50:43;;;;;;;2.35;2.10;;;34.20;48.20;;;;;;4911228;29;20054;-75
2021/07/15 12:53:30;;;;;;;3.30;1.80;;;34.20;48.00;;;;;;4919332;29;20159;-75
2021/07/15 12:55:59;;;;;;;2.08;1.73;;;34.30;47.90;;;;;;4945691;29;20028;-75
2021/07/15 12:58:26;;;;;;;2.53;2.00;;;34.40;47.80;;;;;;4930037;29;20031;-76
2021/07/15 13:01:03;;;;;;;2.05;1.80;;;34.50;47.70;;;;;;4929553;29;20039;-75
2021/07/15 13:03:29;;;;;;;3.08;2.20;;;34.60;47.60;;;;;;4931521;29;20023;-76